createdAt,value
2023-01-15T00:03:21.014Z,8.83
2023-01-15T00:08:25.130Z,9.02
2023-01-15T00:13:28.886Z,8.80
2023-01-15T00:18:32.904Z,8.47
2023-01-15T00:23:53.898Z,8.38
2023-01-15T00:28:56.414Z,8.44
2023-01-15T00:34:00.568Z,8.13
2023-01-15T00:39:03.157Z,8.11
2023-01-15T00:44:06.121Z,8.19
2023-01-15T00:49:10.379Z,8.14
2023-01-15T00:54:12.972Z,8.14
2023-01-15T00:59:15.977Z,8.35
2023-01-15T01:04:20.708Z,8.30
2023-01-15T01:09:23.542Z,8.28
2023-01-15T01:14:26.221Z,8.02
2023-01-15T01:19:30.120Z,8.32
2023-01-15T01:24:33.217Z,8.31
2023-01-15T01:29:36.095Z,8.12
2023-01-15T01:34:40.623Z,8.34
2023-01-15T01:39:43.582Z,8.41
2023-01-15T01:45:04.893Z,8.28
2023-01-15T01:50:14.324Z,8.18
2023-01-15T01:55:20.854Z,8.31
2023-01-15T02:05:59.325Z,8.42
2023-01-15T02:11:03.383Z,8.38
2023-01-15T02:16:14.352Z,8.41
2023-01-15T02:21:27.905Z,8.54
2023-01-15T02:27:01.764Z,8.33
2023-01-15T02:32:11.413Z,8.24
2023-01-15T02:37:21.215Z,8.20
2023-01-15T02:42:28.363Z,8.13
2023-01-15T02:47:35.572Z,8.33
2023-01-15T02:52:45.398Z,8.10
2023-01-15T02:57:54.263Z,8.16
2023-01-15T03:03:02.445Z,8.24
2023-01-15T03:08:07.757Z,8.37
2023-01-15T03:13:18.074Z,8.31
2023-01-15T03:18:27.983Z,8.53
2023-01-15T03:23:31.671Z,8.44
2023-01-15T03:28:39.721Z,8.35
2023-01-15T03:33:43.383Z,8.40
2023-01-15T03:38:51.871Z,8.51
2023-01-15T03:44:21.852Z,8.43
2023-01-15T03:49:34.280Z,8.49
2023-01-15T03:54:50.607Z,8.55
2023-01-15T03:59:59.713Z,8.38
2023-01-15T04:05:04.969Z,8.44
2023-01-15T04:10:11.257Z,8.44
2023-01-15T04:15:16.976Z,8.49
2023-01-15T04:20:19.975Z,8.31
2023-01-15T04:25:23.383Z,8.41
2023-01-15T04:30:27.969Z,7.86
2023-01-15T04:35:30.625Z,8.45
2023-01-15T04:40:50.656Z,8.51
2023-01-15T04:45:54.571Z,8.55
2023-01-15T04:50:57.541Z,8.43
2023-01-15T04:56:03.060Z,8.25
2023-01-15T05:01:12.742Z,8.10
2023-01-15T05:06:15.393Z,8.17
2023-01-15T05:11:17.961Z,8.06
2023-01-15T05:16:24.632Z,8.01
2023-01-15T05:21:28.916Z,8.17
2023-01-15T05:26:33.282Z,8.25
2023-01-15T05:31:37.258Z,8.28
2023-01-15T05:36:39.922Z,8.38
2023-01-15T05:41:51.748Z,8.13
2023-01-15T05:46:58.854Z,8.38
2023-01-15T05:52:02.722Z,8.19
2023-01-15T05:57:05.533Z,8.52
2023-01-15T06:02:09.434Z,8.43
2023-01-15T06:07:11.945Z,8.30
2023-01-15T06:12:14.469Z,8.20
2023-01-15T06:17:18.443Z,8.28
2023-01-15T06:22:21.126Z,8.28
2023-01-15T06:27:23.647Z,8.29
2023-01-15T06:32:28.103Z,8.12
2023-01-15T06:37:30.624Z,8.02
2023-01-15T06:42:50.976Z,8.10
2023-01-15T06:47:54.899Z,8.01
2023-01-15T06:52:57.494Z,8.15
2023-01-15T06:58:00.012Z,8.03
2023-01-15T07:03:04.955Z,8.06
2023-01-15T07:08:07.969Z,8.18
2023-01-15T07:13:11.310Z,8.04
2023-01-15T07:18:15.178Z,7.77
2023-01-15T07:23:17.726Z,8.02
2023-01-15T07:28:20.711Z,7.77
2023-01-15T07:33:24.559Z,8.01
2023-01-15T07:38:29.252Z,8.25
2023-01-15T07:43:49.279Z,8.26
2023-01-15T07:49:10.880Z,7.77
2023-01-15T07:54:13.421Z,7.72
2023-01-15T07:59:15.961Z,7.87
2023-01-15T08:04:20.240Z,7.74
2023-01-15T08:09:22.847Z,7.73
2023-01-15T08:14:43.077Z,7.71
2023-01-15T08:19:47.004Z,7.72
2023-01-15T08:24:49.597Z,7.54
2023-01-15T08:29:52.250Z,7.63
2023-01-15T08:34:56.123Z,7.65
2023-01-15T08:39:58.652Z,7.64
2023-01-15T08:45:01.416Z,7.57
2023-01-15T08:50:06.457Z,7.66
2023-01-15T08:55:09.983Z,7.59
2023-01-15T09:00:14.326Z,7.44
2023-01-15T09:05:18.751Z,7.40
2023-01-15T09:10:21.685Z,7.40
2023-01-15T09:15:24.238Z,7.66
2023-01-15T09:20:28.559Z,7.49
2023-01-15T09:25:31.111Z,7.81
2023-01-15T09:30:33.978Z,7.68
2023-01-15T09:35:37.871Z,7.69
2023-01-15T09:40:49.808Z,7.23
2023-01-15T09:45:57.948Z,7.61
2023-01-15T09:51:17.409Z,7.77
2023-01-15T09:56:23.457Z,7.82
2023-01-15T10:01:29.163Z,7.66
2023-01-15T10:06:40.660Z,7.87
2023-01-15T10:12:03.949Z,7.87
2023-01-15T10:17:26.719Z,8.06
2023-01-15T10:22:51.825Z,7.94
2023-01-15T10:27:55.340Z,8.06
2023-01-15T10:33:03.330Z,8.15
2023-01-15T10:38:17.050Z,8.21
2023-01-15T10:43:24.304Z,8.17
2023-01-15T10:48:33.346Z,8.34
2023-01-15T10:53:43.600Z,8.27
2023-01-15T10:58:51.138Z,8.12
2023-01-15T11:03:54.628Z,8.40
2023-01-15T11:09:10.461Z,8.10
2023-01-15T11:14:31.476Z,8.23
2023-01-15T11:19:40.049Z,8.12
2023-01-15T11:24:52.707Z,8.29
2023-01-15T11:29:57.556Z,8.03
2023-01-15T11:35:02.158Z,8.43
2023-01-15T11:40:07.764Z,8.47
2023-01-15T11:45:33.347Z,8.46
2023-01-15T11:50:53.146Z,8.36
2023-01-15T11:56:01.132Z,8.34
2023-01-15T12:01:03.856Z,8.34
2023-01-15T12:06:09.818Z,8.28
2023-01-15T12:11:31.548Z,8.33
2023-01-15T12:16:42.829Z,8.42
2023-01-15T12:22:07.722Z,8.35
2023-01-15T12:27:29.819Z,8.23
2023-01-15T12:32:36.568Z,8.30
2023-01-15T12:37:45.925Z,8.38
2023-01-15T12:43:11.317Z,8.54
2023-01-15T12:48:20.646Z,8.51
2023-01-15T12:53:26.598Z,8.45
2023-01-15T12:58:41.241Z,8.50
2023-01-15T13:03:57.977Z,8.36
2023-01-15T13:09:06.129Z,8.25
2023-01-15T13:14:16.426Z,8.21
2023-01-15T13:19:33.455Z,8.14
2023-01-15T13:25:09.460Z,8.28
2023-01-15T13:30:31.437Z,8.25
2023-01-15T13:35:38.493Z,8.18
2023-01-15T13:40:44.478Z,8.35
2023-01-15T13:45:51.674Z,8.18
2023-01-15T13:50:57.397Z,8.18
2023-01-15T13:56:05.506Z,8.19
2023-01-15T14:01:24.389Z,8.34
2023-01-15T14:06:37.491Z,8.50
2023-01-15T14:11:47.736Z,8.36
2023-01-15T14:17:00.995Z,8.59
2023-01-15T14:22:34.468Z,8.49
2023-01-15T14:27:50.793Z,8.48
2023-01-15T14:33:09.998Z,8.21
2023-01-15T14:38:16.484Z,8.42
2023-01-15T14:43:22.419Z,8.36
2023-01-15T14:48:39.361Z,8.66
2023-01-15T14:53:45.631Z,8.51
2023-01-15T14:58:57.211Z,8.44
2023-01-15T15:04:12.219Z,8.52
2023-01-15T15:09:20.686Z,8.25
2023-01-15T15:14:26.928Z,8.42
2023-01-15T15:19:38.149Z,8.27
2023-01-15T15:24:48.248Z,8.38
2023-01-15T15:29:51.039Z,8.21
2023-01-15T15:34:55.988Z,7.61
2023-01-15T15:40:02.634Z,8.35
2023-01-15T15:45:35.733Z,8.28
2023-01-15T15:50:40.765Z,8.11
2023-01-15T15:55:45.967Z,8.04
2023-01-15T16:00:48.568Z,8.05
2023-01-15T16:06:00.262Z,8.07
2023-01-15T16:11:07.524Z,8.24
2023-01-15T16:16:11.378Z,7.92
2023-01-15T16:21:20.971Z,7.78
2023-01-15T16:26:29.945Z,8.10
2023-01-15T16:31:34.687Z,7.78
2023-01-15T16:36:45.324Z,7.89
2023-01-15T16:41:49.349Z,7.83
2023-01-15T16:46:56.283Z,7.96
2023-01-15T16:52:02.102Z,8.12
2023-01-15T16:57:06.217Z,8.09
2023-01-15T17:02:15.448Z,7.85
2023-01-15T17:07:23.797Z,7.86
2023-01-15T17:12:31.350Z,7.93
2023-01-15T17:17:34.076Z,8.03
2023-01-15T17:22:38.557Z,8.22
2023-01-15T17:27:41.081Z,8.18
2023-01-15T17:32:43.867Z,7.98
2023-01-15T17:37:48.234Z,8.33
2023-01-15T17:42:51.058Z,7.93
2023-01-15T17:47:53.716Z,8.04
2023-01-15T17:52:57.629Z,7.99
2023-01-15T17:58:18.099Z,8.13
2023-01-15T18:03:40.985Z,7.84
2023-01-15T18:08:48.496Z,7.92
2023-01-15T18:13:52.361Z,7.90
2023-01-15T18:18:54.949Z,8.04
2023-01-15T18:23:59.758Z,8.12
2023-01-15T18:29:05.331Z,8.15
2023-01-15T18:34:08.715Z,8.03
2023-01-15T18:39:13.589Z,7.54
2023-01-15T18:44:36.184Z,7.87
2023-01-15T18:49:39.923Z,8.10
2023-01-15T18:54:43.902Z,7.98
2023-01-15T18:59:47.979Z,8.10
2023-01-15T19:04:50.598Z,7.89
2023-01-15T19:09:55.700Z,7.78
2023-01-15T19:15:16.023Z,7.70
2023-01-15T19:20:20.417Z,7.58
2023-01-15T19:25:25.844Z,7.76
2023-01-15T19:30:29.615Z,7.16
2023-01-15T19:35:32.596Z,7.94
2023-01-15T19:40:40.389Z,7.36
2023-01-15T19:46:15.093Z,7.99
2023-01-15T19:51:17.709Z,7.89
2023-01-15T19:56:22.733Z,7.82
2023-01-15T20:01:25.439Z,7.88
2023-01-15T20:06:28.560Z,7.80
2023-01-15T20:11:52.917Z,7.63
2023-01-15T20:16:55.519Z,7.88
2023-01-15T20:21:58.814Z,7.81
2023-01-15T20:27:02.877Z,7.82
2023-01-15T20:32:05.979Z,7.81
2023-01-15T20:37:09.046Z,8.01
2023-01-15T20:42:30.564Z,8.10
2023-01-15T20:47:50.904Z,8.35
2023-01-15T20:52:54.726Z,8.65
2023-01-15T20:57:58.656Z,8.38
2023-01-15T21:03:03.228Z,8.13
2023-01-15T21:08:06.149Z,8.56
2023-01-15T21:13:10.599Z,9.17
2023-01-15T21:18:13.156Z,9.03
2023-01-15T21:23:15.752Z,8.67
2023-01-15T21:28:19.636Z,8.71
2023-01-15T21:33:22.226Z,8.55
2023-01-15T21:38:24.886Z,8.42
2023-01-15T21:43:46.525Z,8.40
2023-01-15T21:48:51.160Z,8.06
2023-01-15T21:53:54.382Z,7.60
2023-01-15T21:58:58.403Z,8.09
2023-01-15T22:04:01.283Z,7.93
2023-01-15T22:09:04.025Z,8.11
2023-01-15T22:14:07.908Z,8.23
2023-01-15T22:19:12.015Z,7.89
2023-01-15T22:24:14.589Z,8.04
2023-01-15T22:29:18.558Z,7.94
2023-01-15T22:34:22.491Z,7.21
2023-01-15T22:39:26.600Z,8.05
2023-01-15T22:44:30.578Z,7.91
2023-01-15T22:49:33.756Z,7.35
2023-01-15T22:54:36.378Z,8.15
2023-01-15T22:59:40.324Z,8.20
2023-01-15T23:04:43.394Z,8.18
2023-01-15T23:09:46.734Z,8.24
2023-01-15T23:14:52.108Z,8.10
2023-01-15T23:19:54.645Z,8.15
2023-01-15T23:24:57.231Z,8.15
2023-01-15T23:30:01.253Z,7.85
2023-01-15T23:35:03.921Z,7.85
2023-01-15T23:40:07.778Z,7.84
2023-01-15T23:45:30.226Z,7.58
2023-01-15T23:50:32.771Z,7.48
2023-01-15T23:55:35.297Z,7.42
